Latest Weather Observations for Mount Gambier

IDS60801

Issued at 9:05 pm CST Saturday 20 September 2014 (issued every 30 minutes, with the page automatically refreshed every 10 minutes)

About weather observations | Map of weather stations | Latest weather observations for SA | Other Formats
Station Details ID: 026021 Name: MOUNT GAMBIER AERO Lat: -37.75 Lon: 140.77 Height: 63.0 m
Data from the previous 72 hours. | See also: Recent months at Mount Gambier
Date/Time
CST
Temp
°C
App
Temp
°C
Dew
Point
Rel
Hum
%
Delta-T
°C
Wind Press
QNH
hPa
Press
MSL
hPa
Rain
since 9 am
mm
Dir
 
Spd
km/h
Gust
km/h
Spd
kts
Gust
kts
20/09:00pm 7.1 5.7 3.5 78 1.5 NE 0 0 0 0 1030.6 1030.7 0.0
20/08:30pm 7.4 4.9 3.6 77 1.6 ENE 6 7 3 4 1030.3 - 0.0
20/08:00pm 7.8 4.6 3.3 73 1.9 E 9 11 5 6 1030.3 - 0.0
20/07:30pm 7.6 4.9 3.9 77 1.6 S 7 7 4 4 1030.5 - 0.0
20/07:00pm 8.0 5.0 4.1 76 1.7 S 9 11 5 6 1030.1 - 0.0
20/06:30pm 8.7 5.0 4.4 74 1.9 S 13 15 7 8 1029.8 - 0.0
20/06:00pm 10.0 6.4 5.1 71 2.2 SSE 13 15 7 8 1029.6 1029.7 0.0
20/05:30pm 11.8 7.2 5.8 66 2.8 S 19 24 10 13 1029.3 - 0.0
20/05:00pm 12.9 7.9 4.8 58 3.7 S 20 28 11 15 1029.1 - 0.0
20/04:30pm 13.7 8.1 5.6 58 3.8 S 24 32 13 17 1028.7 - 0.0
20/04:00pm 14.5 9.0 5.9 56 4.1 S 24 30 13 16 1028.3 - 0.0
20/03:30pm 15.2 10.1 6.0 54 4.4 S 22 28 12 15 1028.1 - 0.0
20/03:00pm 15.6 10.8 5.8 52 4.7 S 20 28 11 15 1027.9 1028.0 0.0
20/02:30pm 14.6 9.8 5.5 54 4.3 S 20 24 11 13 1028.0 - 0.0
20/02:00pm 16.3 11.7 5.7 49 5.1 S 19 24 10 13 1028.0 - 0.0
20/01:30pm 15.3 11.3 3.1 44 5.5 S 13 19 7 10 1028.0 - 0.0
20/01:00pm 15.6 12.4 3.3 43 5.6 S 9 19 5 10 1028.2 - 0.0
20/12:30pm 15.7 12.8 4.8 48 5.1 SE 9 15 5 8 1028.3 - 0.0
20/12:00pm 15.2 12.4 5.2 51 4.7 S 9 17 5 9 1028.4 1028.5 0.0
20/11:30am 14.6 11.7 4.9 52 4.5 SE 9 17 5 9 1028.6 - 0.0
20/11:00am 14.6 11.4 5.2 53 4.4 E 11 15 6 8 1028.6 - 0.0
20/10:30am 14.0 10.8 5.2 55 4.1 E 11 17 6 9 1028.8 - 0.0
20/10:00am 13.4 9.5 5.2 57 3.8 E 15 19 8 10 1029.0 - 0.0
20/09:30am 12.8 9.7 7.4 69 2.6 E 13 19 7 10 1029.2 - 0.0
20/09:00am 12.2 9.2 7.9 75 2.1 ENE 13 15 7 8 1029.4 1029.5 0.2
20/08:30am 10.3 8.2 8.2 87 1.0 NE 9 13 5 7 1029.3 - 0.2
20/08:00am 8.3 7.8 7.7 96 0.3 CALM 0 0 0 0 1029.2 - 0.2
20/07:30am 3.8 2.4 3.3 97 0.2 CALM 0 0 0 0 1028.8 - 0.2
20/07:00am 1.4 -0.4 1.4 100 0.0 CALM 0 0 0 0 1028.3 - 0.2
20/06:44am 0.8 -1.1 0.8 100 0.0 CALM 0 0 0 0 1028.1 - 0.2
20/06:30am 0.2 - - - - CALM 0 0 0 0 1028.0 - 0.2
20/06:00am 0.1 - - - - N 0 0 0 0 1027.6 1027.7 0.2
20/05:58am 0.1 - - - - CALM 0 0 0 0 1027.6 - 0.2
20/05:31am 0.1 - - - - CALM 0 0 0 0 1027.4 - 0.2
20/05:30am 0.1 - - - - CALM 0 0 0 0 1027.4 - 0.2
20/05:00am 0.0 - - - - CALM 0 0 0 0 1027.0 - 0.2
20/04:30am 0.7 -1.3 -0.1 94 0.3 CALM 0 0 0 0 1026.5 - 0.2
20/04:19am 0.6 -1.4 0.0 96 0.2 CALM 0 0 0 0 1026.4 - 0.2
20/04:11am 0.7 -1.3 0.1 96 0.2 CALM 0 0 0 0 1026.3 - 0.2
20/04:00am 0.5 - - - - CALM 0 0 0 0 1026.2 - 0.2
20/03:30am 0.7 -1.2 0.4 98 0.1 CALM 0 0 0 0 1026.2 - 0.2
20/03:00am 1.1 -0.9 0.0 92 0.4 CALM 0 0 0 0 1025.9 1026.0 0.2
20/02:30am 0.8 -1.1 0.5 98 0.1 N 0 0 0 0 1025.9 - 0.2
20/02:19am 1.1 -0.8 0.6 96 0.2 CALM 0 0 0 0 1025.8 - 0.2
20/02:00am 1.1 -0.8 0.8 98 0.1 CALM 0 0 0 0 1025.9 - 0.2
20/01:59am 1.2 -0.7 0.7 96 0.2 CALM 0 0 0 0 1025.9 - 0.2
20/01:37am 1.7 -0.1 0.9 94 0.3 CALM 0 0 0 0 1026.0 - 0.2
20/01:30am 1.6 -0.1 1.6 100 0.0 CALM 0 0 0 0 1026.0 - 0.2
20/01:00am 2.2 0.4 1.4 94 0.3 CALM 0 0 0 0 1026.0 - 0.2
20/12:30am 2.5 0.9 2.2 98 0.1 CALM 0 0 0 0 1026.2 - 0.2
20/12:00am 2.4 0.7 1.6 94 0.3 N 0 0 0 0 1026.3 1026.4 0.2
 
Date/Time
CST
Temp
°C
App
Temp
°C
Dew
Point
Rel
Hum
%
Delta-T
°C
Wind Press
QNH
hPa
Press
MSL
hPa
Rain
since 9 am
mm
Dir
 
Spd
km/h
Gust
km/h
Spd
kts
Gust
kts
19/11:30pm 2.7 1.1 2.2 96 0.2 CALM 0 0 0 0 1026.3 - 0.2
19/11:00pm 3.3 1.8 2.8 97 0.2 CALM 0 0 0 0 1026.4 - 0.2
19/10:30pm 3.4 1.8 2.6 94 0.3 CALM 0 0 0 0 1026.4 - 0.2
19/10:00pm 4.0 2.5 2.8 92 0.5 CALM 0 0 0 0 1026.4 - 0.2
19/09:30pm 4.5 3.1 3.5 93 0.4 CALM 0 0 0 0 1026.4 - 0.2
19/09:00pm 4.9 3.5 3.7 92 0.5 CALM 0 0 0 0 1026.5 1026.7 0.2
19/08:30pm 5.5 4.2 4.1 91 0.6 CALM 0 0 0 0 1026.7 - 0.2
19/08:00pm 5.8 4.5 3.9 88 0.8 CALM 0 0 0 0 1026.7 - 0.2
19/07:30pm 6.7 4.3 4.1 83 1.1 SSW 6 7 3 4 1026.4 - 0.2
19/07:00pm 7.3 4.9 4.5 82 1.2 SSW 6 7 3 4 1026.3 - 0.2
19/06:30pm 8.1 5.2 4.7 79 1.5 SSW 9 11 5 6 1026.2 - 0.2
19/06:00pm 9.0 5.3 4.7 74 1.9 SSW 13 17 7 9 1025.9 1026.0 0.2
19/05:30pm 10.8 6.6 4.0 63 3.0 SSW 15 20 8 11 1025.7 - 0.2
19/05:00pm 12.0 7.1 4.2 59 3.5 SW 19 26 10 14 1025.5 - 0.2
19/04:30pm 13.2 8.6 3.9 53 4.2 SSW 17 20 9 11 1025.3 - 0.2
19/04:00pm 13.4 9.4 4.7 55 4.0 SSW 15 19 8 10 1025.2 - 0.2
19/03:30pm 13.1 9.3 5.6 60 3.5 S 15 19 8 10 1025.1 - 0.2
19/03:00pm 12.9 8.7 5.6 61 3.4 SSW 17 20 9 11 1025.2 1025.3 0.2
19/02:30pm 12.8 8.4 5.0 59 3.6 SW 17 20 9 11 1025.2 - 0.2
19/02:00pm 13.3 9.3 5.1 57 3.8 SSW 15 19 8 10 1025.2 - 0.2
19/01:30pm 13.9 10.4 5.4 56 4.0 SSW 13 19 7 10 1025.2 - 0.2
19/01:00pm 13.9 11.8 3.7 50 4.6 S 4 13 2 7 1025.3 - 0.2
19/12:30pm 13.6 10.3 4.4 53 4.2 SSW 11 15 6 8 1025.7 - 0.2
19/12:00pm 13.5 9.9 4.8 55 4.0 S 13 20 7 11 1025.9 1026.0 0.2
19/11:30am 14.3 11.2 3.7 49 4.8 SSW 9 17 5 9 1026.0 - 0.2
19/11:00am 14.3 12.0 4.6 52 4.5 WSW 6 15 3 8 1026.3 - 0.2
19/10:30am 13.6 10.7 4.4 53 4.2 WSW 9 15 5 8 1026.7 - 0.2
19/10:00am 13.0 10.0 3.9 54 4.1 SW 9 11 5 6 1026.8 - 0.2
19/09:30am 12.5 9.7 5.1 60 3.4 SW 9 13 5 7 1027.0 - 0.0
19/09:00am 11.8 9.5 5.8 66 2.8 SSW 7 9 4 5 1027.1 1027.2 0.4
19/08:30am 10.3 8.6 6.0 75 2.0 W 4 9 2 5 1027.0 - 0.4
19/08:00am 8.2 7.2 5.5 83 1.2 CALM 0 7 0 4 1026.8 - 0.4
19/07:30am 4.8 3.5 4.1 95 0.3 CALM 0 0 0 0 1026.7 - 0.4
19/07:00am 2.4 0.8 2.4 100 0.0 CALM 0 0 0 0 1026.4 - 0.4
19/06:30am 1.2 -0.7 0.7 96 0.2 CALM 0 4 0 2 1026.3 - 0.4
19/06:00am 1.5 -0.4 0.7 94 0.3 CALM 0 2 0 1 1025.9 1026.0 0.4
19/05:30am 1.3 -0.6 0.8 96 0.2 CALM 0 0 0 0 1025.8 - 0.4
19/05:00am 2.3 -0.5 1.8 96 0.2 NNW 6 9 3 5 1025.7 - 0.4
19/04:30am 1.1 -1.6 0.6 96 0.2 N 4 11 2 6 1025.5 - 0.4
19/04:00am 2.7 1.1 2.2 96 0.2 CALM 0 0 0 0 1025.3 - 0.4
19/03:30am 2.4 0.7 1.6 94 0.3 CALM 0 0 0 0 1025.3 - 0.4
19/03:00am 3.2 1.6 2.4 94 0.3 CALM 0 0 0 0 1025.3 1025.4 0.4
19/02:30am 2.6 0.9 1.8 94 0.3 CALM 0 0 0 0 1025.4 - 0.4
19/02:00am 2.1 0.0 1.6 96 0.2 NNW 2 6 1 3 1025.5 - 0.4
19/01:30am 2.3 0.5 1.2 92 0.4 CALM 0 7 0 4 1025.7 - 0.4
19/01:00am 3.3 1.7 2.5 94 0.3 CALM 0 0 0 0 1025.9 - 0.4
19/12:30am 3.2 1.6 2.7 96 0.2 CALM 0 0 0 0 1026.1 - 0.4
19/12:00am 3.4 1.9 2.9 97 0.2 CALM 0 0 0 0 1026.2 1026.3 0.4
 
Date/Time
CST
Temp
°C
App
Temp
°C
Dew
Point
Rel
Hum
%
Delta-T
°C
Wind Press
QNH
hPa
Press
MSL
hPa
Rain
since 9 am
mm
Dir
 
Spd
km/h
Gust
km/h
Spd
kts
Gust
kts
18/11:30pm 3.3 0.1 2.8 97 0.2 NW 9 9 5 5 1026.2 - 0.4
18/11:00pm 4.0 2.2 3.3 95 0.3 WNW 2 7 1 4 1026.4 - 0.4
18/10:30pm 3.8 1.2 3.3 97 0.2 NW 6 7 3 4 1026.5 - 0.4
18/10:00pm 4.3 1.6 3.6 95 0.3 NW 7 7 4 4 1026.8 - 0.4
18/09:30pm 4.5 1.8 3.8 95 0.3 NW 7 7 4 4 1026.8 - 0.4
18/09:00pm 4.9 2.2 3.9 93 0.4 WNW 7 9 4 5 1026.8 1026.9 0.4
18/08:30pm 5.0 2.4 4.0 93 0.4 WNW 7 9 4 5 1026.5 - 0.4
18/08:00pm 5.2 2.5 3.5 89 0.7 W 7 7 4 4 1026.2 - 0.4
18/07:30pm 5.9 3.4 4.5 91 0.6 W 7 7 4 4 1026.1 - 0.4
18/07:00pm 6.5 4.5 4.4 86 0.9 W 4 7 2 4 1025.9 - 0.4
18/06:30pm 7.8 6.2 4.6 80 1.4 SSW 2 7 1 4 1025.8 - 0.4
18/06:00pm 8.6 5.8 5.2 79 1.5 S 9 11 5 6 1025.6 1025.7 0.4
18/05:30pm 10.0 6.2 5.6 74 2.0 S 15 19 8 10 1025.5 - 0.4
18/05:00pm 11.2 7.3 5.3 67 2.7 S 15 17 8 9 1025.3 - 0.4
18/04:30pm 11.4 6.7 5.0 65 2.9 S 19 26 10 14 1025.2 - 0.4
18/04:00pm 12.2 7.1 5.8 65 3.0 S 22 28 12 15 1024.9 - 0.4
18/03:30pm 11.8 7.2 5.8 66 2.8 SSW 19 26 10 14 1024.9 - 0.4
18/03:00pm 12.2 7.1 6.0 66 2.9 S 22 28 12 15 1024.8 1024.9 0.4
18/02:30pm 12.4 8.0 4.5 58 3.6 S 17 26 9 14 1024.8 - 0.4
18/02:00pm 11.4 6.2 7.4 76 1.9 S 24 30 13 16 1025.0 - 0.4
18/01:30pm 13.4 9.2 5.5 59 3.7 SSW 17 26 9 14 1024.9 - 0.4
18/01:00pm 12.7 7.9 5.6 62 3.3 SSW 20 26 11 14 1025.0 - 0.4
18/12:30pm 13.2 9.5 4.7 56 3.9 SW 13 24 7 13 1025.0 - 0.4
18/12:00pm 11.7 6.9 4.4 61 3.3 SW 19 24 10 13 1025.3 1025.4 0.4
18/11:30am 11.2 5.8 6.3 72 2.3 SSW 24 32 13 17 1025.5 - 0.4
18/11:00am 10.8 6.0 5.8 71 2.3 SW 20 30 11 16 1025.4 - 0.4
18/10:30am 10.1 5.8 7.8 86 1.1 SW 20 30 11 16 1025.6 - 0.4
18/10:00am 12.2 7.5 5.3 62 3.2 SW 19 28 10 15 1025.5 - 0.0
18/09:30am 11.2 6.8 6.5 73 2.2 W 19 24 10 13 1025.6 - 0.0
18/09:00am 10.0 5.3 6.1 77 1.8 WSW 20 30 11 16 1025.6 1025.7 0.2
18/08:30am 10.3 6.1 5.7 73 2.1 S 17 22 9 12 1025.5 - 0.2
18/08:00am 9.4 4.8 5.7 78 1.7 SSW 19 26 10 14 1025.1 - 0.2
18/07:30am 8.1 5.4 5.7 85 1.1 SW 9 13 5 7 1025.0 - 0.2
18/07:00am 8.2 6.0 5.5 83 1.2 WSW 6 9 3 5 1024.6 - 0.2
18/06:30am 7.6 3.9 4.6 81 1.3 WNW 13 15 7 8 1024.3 - 0.2
18/06:00am 7.4 3.7 4.4 81 1.3 NW 13 13 7 7 1024.0 1024.1 0.2
18/05:30am 7.3 3.7 4.8 84 1.1 WNW 13 15 7 8 1023.7 - 0.2
18/05:00am 7.1 4.5 4.3 82 1.2 W 7 9 4 5 1023.3 - 0.2
18/04:30am 8.5 4.8 4.4 75 1.8 WSW 13 17 7 9 1023.1 - 0.2
18/04:00am 8.7 5.0 4.4 74 1.9 WSW 13 19 7 10 1023.0 - 0.2
18/03:30am 9.0 4.3 3.4 68 2.4 WSW 17 28 9 15 1022.9 - 0.2
18/03:00am 9.0 4.7 3.2 67 2.5 SW 15 19 8 10 1022.9 1023.0 0.2
18/02:30am 8.2 4.7 3.5 72 2.0 WSW 11 15 6 8 1022.9 - 0.2
18/02:00am 8.9 5.4 3.6 69 2.3 SW 11 13 6 7 1022.8 - 0.2
18/01:30am 8.6 5.5 3.7 71 2.1 WSW 9 11 5 6 1022.7 - 0.2
18/01:00am 8.3 5.4 4.4 76 1.7 WSW 9 13 5 7 1022.8 - 0.2
18/12:30am 8.6 5.3 4.3 74 1.9 SW 11 13 6 7 1022.8 - 0.2
18/12:00am 9.0 5.4 3.2 67 2.5 WSW 11 17 6 9 1022.8 1022.9 0.2
 
Date/Time
CST
Temp
°C
App
Temp
°C
Dew
Point
Rel
Hum
%
Delta-T
°C
Wind Press
QNH
hPa
Press
MSL
hPa
Rain
since 9 am
mm
Dir
 
Spd
km/h
Gust
km/h
Spd
kts
Gust
kts
17/11:30pm 9.1 5.7 3.8 69 2.3 WSW 11 17 6 9 1022.9 - 0.2
17/11:00pm 9.1 5.9 3.0 65 2.6 SW 9 13 5 7 1023.0 - 0.2
17/10:30pm 9.1 5.0 2.2 62 2.9 WSW 13 15 7 8 1023.0 - 0.2
17/10:00pm 9.5 4.8 0.9 55 3.5 WSW 15 20 8 11 1022.9 - 0.2
17/09:30pm 9.5 4.1 1.5 57 3.3 WSW 19 28 10 15 1022.9 - 0.2

Other Formats:

Comma delimited format used in spreadsheet applications
http://www.bom.gov.au/fwo/IDS60801/IDS60801.94821.axf

JavaScript Object Notation format (JSON) in row-major order
http://www.bom.gov.au/fwo/IDS60801/IDS60801.94821.json